sensor_id;sensor_type;location;lat;lon;timestamp;pressure;altitude;pressure_sealevel;temperature;humidity
74329;BME280;62749;51.982;5.916;2023-06-14T00:00:38;101295.38;;;20.79;35.79
74329;BME280;62749;51.982;5.916;2023-06-14T00:03:10;101294.56;;;20.66;36.00
74329;BME280;62749;51.982;5.916;2023-06-14T00:05:46;101301.78;;;20.65;35.83
74329;BME280;62749;51.982;5.916;2023-06-14T00:08:16;101303.94;;;20.60;35.75
74329;BME280;62749;51.982;5.916;2023-06-14T00:10:45;101303.72;;;20.63;35.86
74329;BME280;62749;51.982;5.916;2023-06-14T00:13:14;101303.34;;;20.57;35.90
74329;BME280;62749;51.982;5.916;2023-06-14T00:15:45;101311.03;;;20.61;36.31
74329;BME280;62749;51.982;5.916;2023-06-14T00:18:15;101298.44;;;20.62;35.98
74329;BME280;62749;51.982;5.916;2023-06-14T00:20:47;101307.94;;;20.43;36.65
74329;BME280;62749;51.982;5.916;2023-06-14T00:23:17;101306.56;;;20.37;36.24
74329;BME280;62749;51.982;5.916;2023-06-14T00:25:46;101304.84;;;20.36;36.98
74329;BME280;62749;51.982;5.916;2023-06-14T00:28:16;101301.47;;;20.46;36.89
74329;BME280;62749;51.982;5.916;2023-06-14T00:30:45;101298.38;;;20.39;37.14
74329;BME280;62749;51.982;5.916;2023-06-14T00:33:15;101308.16;;;20.40;36.91
74329;BME280;62749;51.982;5.916;2023-06-14T00:35:47;101312.50;;;20.30;36.98
74329;BME280;62749;51.982;5.916;2023-06-14T00:38:16;101314.25;;;20.18;36.89
74329;BME280;62749;51.982;5.916;2023-06-14T00:40:46;101307.09;;;20.18;37.37
74329;BME280;62749;51.982;5.916;2023-06-14T00:43:15;101311.50;;;20.19;37.48
74329;BME280;62749;51.982;5.916;2023-06-14T00:45:44;101309.78;;;20.18;37.33
74329;BME280;62749;51.982;5.916;2023-06-14T00:48:16;101297.03;;;20.09;37.76
74329;BME280;62749;51.982;5.916;2023-06-14T00:50:49;101310.69;;;20.06;37.59
74329;BME280;62749;51.982;5.916;2023-06-14T00:53:20;101312.47;;;20.18;37.88
74329;BME280;62749;51.982;5.916;2023-06-14T00:55:51;101310.22;;;20.12;37.82
74329;BME280;62749;51.982;5.916;2023-06-14T00:58:22;101314.34;;;20.05;37.94
74329;BME280;62749;51.982;5.916;2023-06-14T01:00:52;101314.34;;;20.05;38.01
74329;BME280;62749;51.982;5.916;2023-06-14T01:03:21;101316.84;;;19.95;38.22
74329;BME280;62749;51.982;5.916;2023-06-14T01:06:01;101316.56;;;19.87;38.59
74329;BME280;62749;51.982;5.916;2023-06-14T01:08:46;101310.72;;;19.93;38.76
74329;BME280;62749;51.982;5.916;2023-06-14T01:11:28;101313.81;;;20.00;37.93
74329;BME280;62749;51.982;5.916;2023-06-14T01:14:02;101313.63;;;19.90;38.29
74329;BME280;62749;51.982;5.916;2023-06-14T01:16:32;101316.75;;;19.84;38.23
74329;BME280;62749;51.982;5.916;2023-06-14T01:19:02;101304.84;;;19.75;38.81
74329;BME280;62749;51.982;5.916;2023-06-14T01:21:35;101310.63;;;19.82;38.39
74329;BME280;62749;51.982;5.916;2023-06-14T01:24:11;101317.19;;;19.90;38.15
74329;BME280;62749;51.982;5.916;2023-06-14T01:26:40;101319.09;;;19.88;38.74
74329;BME280;62749;51.982;5.916;2023-06-14T01:29:15;101309.13;;;19.77;38.40
74329;BME280;62749;51.982;5.916;2023-06-14T01:31:45;101316.94;;;19.81;38.64
74329;BME280;62749;51.982;5.916;2023-06-14T01:34:16;101311.38;;;19.84;39.20
74329;BME280;62749;51.982;5.916;2023-06-14T01:36:47;101313.31;;;19.69;39.02
74329;BME280;62749;51.982;5.916;2023-06-14T01:39:22;101309.53;;;19.60;39.39
74329;BME280;62749;51.982;5.916;2023-06-14T01:41:53;101310.91;;;19.53;39.14
74329;BME280;62749;51.982;5.916;2023-06-14T01:44:25;101308.34;;;19.51;39.48
74329;BME280;62749;51.982;5.916;2023-06-14T01:46:56;101312.59;;;19.67;39.32
74329;BME280;62749;51.982;5.916;2023-06-14T01:49:26;101316.13;;;19.67;38.87
74329;BME280;62749;51.982;5.916;2023-06-14T01:51:55;101308.97;;;19.55;39.00
74329;BME280;62749;51.982;5.916;2023-06-14T01:54:27;101311.31;;;19.59;39.05
74329;BME280;62749;51.982;5.916;2023-06-14T01:56:57;101308.44;;;19.62;38.78
74329;BME280;62749;51.982;5.916;2023-06-14T01:59:26;101306.28;;;19.68;39.39
74329;BME280;62749;51.982;5.916;2023-06-14T02:01:57;101303.06;;;19.62;39.11
74329;BME280;62749;51.982;5.916;2023-06-14T02:04:26;101308.44;;;19.62;39.70
74329;BME280;62749;51.982;5.916;2023-06-14T02:06:56;101307.19;;;19.55;39.27
74329;BME280;62749;51.982;5.916;2023-06-14T02:09:28;101309.53;;;19.47;39.70
74329;BME280;62749;51.982;5.916;2023-06-14T02:11:57;101304.28;;;19.45;39.43
74329;BME280;62749;51.982;5.916;2023-06-14T02:14:26;101300.09;;;19.54;39.51
74329;BME280;62749;51.982;5.916;2023-06-14T02:16:56;101304.78;;;19.51;39.57
74329;BME280;62749;51.982;5.916;2023-06-14T02:19:27;101305.56;;;19.53;39.86
74329;BME280;62749;51.982;5.916;2023-06-14T02:21:57;101299.44;;;19.51;39.70
74329;BME280;62749;51.982;5.916;2023-06-14T02:24:29;101305.69;;;19.38;39.86
74329;BME280;62749;51.982;5.916;2023-06-14T02:26:58;101301.75;;;19.31;40.27
74329;BME280;62749;51.982;5.916;2023-06-14T02:29:27;101301.41;;;19.36;40.04
74329;BME280;62749;51.982;5.916;2023-06-14T02:31:57;101309.03;;;19.29;39.83
74329;BME280;62749;51.982;5.916;2023-06-14T02:34:26;101309.34;;;19.24;40.22
74329;BME280;62749;51.982;5.916;2023-06-14T02:36:55;101310.84;;;19.28;40.49
74329;BME280;62749;51.982;5.916;2023-06-14T02:39:25;101306.22;;;19.30;40.36
74329;BME280;62749;51.982;5.916;2023-06-14T02:41:57;101300.78;;;19.19;40.46
74329;BME280;62749;51.982;5.916;2023-06-14T02:44:27;101311.06;;;19.12;40.40
74329;BME280;62749;51.982;5.916;2023-06-14T02:46:56;101311.72;;;19.16;40.29
74329;BME280;62749;51.982;5.916;2023-06-14T02:49:27;101311.47;;;19.19;40.71
74329;BME280;62749;51.982;5.916;2023-06-14T02:51:56;101312.25;;;19.21;40.76
74329;BME280;62749;51.982;5.916;2023-06-14T02:54:26;101312.00;;;19.11;40.46
74329;BME280;62749;51.982;5.916;2023-06-14T02:56:58;101312.59;;;19.04;40.57
74329;BME280;62749;51.982;5.916;2023-06-14T02:59:27;101315.25;;;19.04;40.84
74329;BME280;62749;51.982;5.916;2023-06-14T03:01:56;101321.03;;;18.97;41.29
74329;BME280;62749;51.982;5.916;2023-06-14T03:04:26;101319.72;;;18.90;41.53
74329;BME280;62749;51.982;5.916;2023-06-14T03:06:55;101326.88;;;18.90;41.72
74329;BME280;62749;51.982;5.916;2023-06-14T03:09:25;101329.06;;;18.97;41.51
74329;BME280;62749;51.982;5.916;2023-06-14T03:11:57;101328.22;;;18.97;41.32
74329;BME280;62749;51.982;5.916;2023-06-14T03:14:27;101321.97;;;18.83;41.42
74329;BME280;62749;51.982;5.916;2023-06-14T03:16:57;101329.03;;;18.84;41.65
74329;BME280;62749;51.982;5.916;2023-06-14T03:19:26;101321.97;;;18.83;41.85
74329;BME280;62749;51.982;5.916;2023-06-14T03:21:56;101328.91;;;18.86;41.80
74329;BME280;62749;51.982;5.916;2023-06-14T03:24:26;101334.75;;;18.65;42.21
74329;BME280;62749;51.982;5.916;2023-06-14T03:27:00;101339.91;;;18.68;42.52
74329;BME280;62749;51.982;5.916;2023-06-14T03:29:30;101343.34;;;18.70;42.19
74329;BME280;62749;51.982;5.916;2023-06-14T03:32:01;101357.03;;;18.66;42.61
74329;BME280;62749;51.982;5.916;2023-06-14T03:34:30;101342.03;;;18.63;42.33
74329;BME280;62749;51.982;5.916;2023-06-14T03:37:00;101348.25;;;18.64;43.01
74329;BME280;62749;51.982;5.916;2023-06-14T03:39:29;101353.47;;;18.52;43.19
74329;BME280;62749;51.982;5.916;2023-06-14T03:42:01;101353.25;;;18.55;42.71
74329;BME280;62749;51.982;5.916;2023-06-14T03:44:30;101353.16;;;18.57;42.82
74329;BME280;62749;51.982;5.916;2023-06-14T03:46:59;101354.63;;;18.48;42.82
74329;BME280;62749;51.982;5.916;2023-06-14T03:49:29;101348.81;;;18.42;42.83
74329;BME280;62749;51.982;5.916;2023-06-14T03:51:58;101346.91;;;18.44;43.03
74329;BME280;62749;51.982;5.916;2023-06-14T03:54:28;101355.88;;;18.43;43.29
74329;BME280;62749;51.982;5.916;2023-06-14T03:57:01;101361.03;;;18.46;43.13
74329;BME280;62749;51.982;5.916;2023-06-14T03:59:31;101361.16;;;18.44;43.61
74329;BME280;62749;51.982;5.916;2023-06-14T04:02:01;101367.00;;;18.36;43.41
74329;BME280;62749;51.982;5.916;2023-06-14T04:04:30;101369.03;;;18.33;43.49
74329;BME280;62749;51.982;5.916;2023-06-14T04:07:02;101364.84;;;18.29;43.91
74329;BME280;62749;51.982;5.916;2023-06-14T04:09:31;101368.34;;;18.29;43.96
74329;BME280;62749;51.982;5.916;2023-06-14T04:12:04;101379.16;;;18.28;44.22
74329;BME280;62749;51.982;5.916;2023-06-14T04:14:35;101378.19;;;18.29;43.74
74329;BME280;62749;51.982;5.916;2023-06-14T04:17:04;101376.28;;;18.31;43.96
74329;BME280;62749;51.982;5.916;2023-06-14T04:19:34;101378.53;;;18.37;44.10
74329;BME280;62749;51.982;5.916;2023-06-14T04:22:04;101381.97;;;18.39;43.86
74329;BME280;62749;51.982;5.916;2023-06-14T04:24:35;101383.81;;;18.38;44.21
74329;BME280;62749;51.982;5.916;2023-06-14T04:27:07;101394.13;;;18.30;44.69
74329;BME280;62749;51.982;5.916;2023-06-14T04:29:36;101392.78;;;18.37;44.59
74329;BME280;62749;51.982;5.916;2023-06-14T04:32:06;101404.25;;;18.39;44.13
74329;BME280;62749;51.982;5.916;2023-06-14T04:34:36;101389.44;;;18.34;44.39
74329;BME280;62749;51.982;5.916;2023-06-14T04:37:06;101402.22;;;18.43;44.56
74329;BME280;62749;51.982;5.916;2023-06-14T04:39:36;101398.72;;;18.28;44.58
74329;BME280;62749;51.982;5.916;2023-06-14T04:42:08;101404.75;;;18.32;44.39
74329;BME280;62749;51.982;5.916;2023-06-14T04:44:38;101401.63;;;18.25;44.69
74329;BME280;62749;51.982;5.916;2023-06-14T04:47:07;101404.66;;;18.19;45.25
74329;BME280;62749;51.982;5.916;2023-06-14T04:49:37;101408.50;;;18.15;45.05
74329;BME280;62749;51.982;5.916;2023-06-14T04:52:07;101410.69;;;18.22;45.19
74329;BME280;62749;51.982;5.916;2023-06-14T04:54:36;101412.81;;;18.17;45.55
74329;BME280;62749;51.982;5.916;2023-06-14T04:57:11;101413.00;;;18.14;45.43
74329;BME280;62749;51.982;5.916;2023-06-14T04:59:43;101418.63;;;18.24;45.40
74329;BME280;62749;51.982;5.916;2023-06-14T05:02:13;101411.72;;;18.34;45.43
74329;BME280;62749;51.982;5.916;2023-06-14T05:04:42;101416.63;;;18.40;45.21
74329;BME280;62749;51.982;5.916;2023-06-14T05:07:14;101412.44;;;18.51;44.90
74329;BME280;62749;51.982;5.916;2023-06-14T05:09:44;101422.16;;;18.52;45.24
74329;BME280;62749;51.982;5.916;2023-06-14T05:12:16;101417.66;;;18.52;44.64
74329;BME280;62749;51.982;5.916;2023-06-14T05:14:47;101419.03;;;18.45;44.88
74329;BME280;62749;51.982;5.916;2023-06-14T05:17:17;101421.94;;;18.55;44.66
74329;BME280;62749;51.982;5.916;2023-06-14T05:19:46;101417.84;;;18.49;44.96
74329;BME280;62749;51.982;5.916;2023-06-14T05:22:16;101424.72;;;18.53;45.10
74329;BME280;62749;51.982;5.916;2023-06-14T05:24:45;101420.38;;;18.65;44.92
74329;BME280;62749;51.982;5.916;2023-06-14T05:27:17;101422.09;;;18.66;44.89
74329;BME280;62749;51.982;5.916;2023-06-14T05:29:49;101428.25;;;18.81;44.31
74329;BME280;62749;51.982;5.916;2023-06-14T05:32:22;101433.94;;;18.90;44.66
74329;BME280;62749;51.982;5.916;2023-06-14T05:34:51;101428.31;;;18.94;44.43
74329;BME280;62749;51.982;5.916;2023-06-14T05:37:20;101434.75;;;19.05;43.92
74329;BME280;62749;51.982;5.916;2023-06-14T05:39:50;101440.97;;;19.05;44.25
74329;BME280;62749;51.982;5.916;2023-06-14T05:42:22;101450.84;;;19.17;44.07
74329;BME280;62749;51.982;5.916;2023-06-14T05:44:51;101441.75;;;19.20;44.16
74329;BME280;62749;51.982;5.916;2023-06-14T05:47:21;101442.63;;;19.21;43.92
74329;BME280;62749;51.982;5.916;2023-06-14T05:49:52;101445.19;;;19.22;43.91
74329;BME280;62749;51.982;5.916;2023-06-14T05:52:21;101442.69;;;19.19;43.83
74329;BME280;62749;51.982;5.916;2023-06-14T05:54:51;101448.06;;;19.19;43.95
74329;BME280;62749;51.982;5.916;2023-06-14T05:57:23;101449.91;;;19.19;43.85
74329;BME280;62749;51.982;5.916;2023-06-14T05:59:52;101452.25;;;19.23;44.00
74329;BME280;62749;51.982;5.916;2023-06-14T06:02:22;101460.97;;;19.40;44.16
74329;BME280;62749;51.982;5.916;2023-06-14T06:04:51;101466.84;;;19.45;43.76
74329;BME280;62749;51.982;5.916;2023-06-14T06:07:20;101464.63;;;19.65;43.26
74329;BME280;62749;51.982;5.916;2023-06-14T06:09:50;101464.50;;;19.53;43.90
74329;BME280;62749;51.982;5.916;2023-06-14T06:12:19;101466.09;;;19.56;43.91
74329;BME280;62749;51.982;5.916;2023-06-14T06:14:51;101467.59;;;19.73;43.40
74329;BME280;62749;51.982;5.916;2023-06-14T06:17:21;101470.97;;;19.89;43.39
74329;BME280;62749;51.982;5.916;2023-06-14T06:19:51;101471.59;;;19.93;42.82
74329;BME280;62749;51.982;5.916;2023-06-14T06:22:20;101474.59;;;19.88;43.04
74329;BME280;62749;51.982;5.916;2023-06-14T06:24:50;101470.97;;;19.89;43.67
74329;BME280;62749;51.982;5.916;2023-06-14T06:27:29;101480.38;;;19.95;43.10
74329;BME280;62749;51.982;5.916;2023-06-14T06:30:01;101481.66;;;20.02;43.16
74329;BME280;62749;51.982;5.916;2023-06-14T06:32:30;101487.63;;;20.19;43.12
74329;BME280;62749;51.982;5.916;2023-06-14T06:35:00;101483.56;;;20.26;42.47
74329;BME280;62749;51.982;5.916;2023-06-14T06:37:32;101483.56;;;20.26;42.75
74329;BME280;62749;51.982;5.916;2023-06-14T06:40:02;101487.16;;;20.38;41.87
74329;BME280;62749;51.982;5.916;2023-06-14T06:42:32;101493.91;;;20.44;42.36
74329;BME280;62749;51.982;5.916;2023-06-14T06:45:05;101495.28;;;20.49;42.25
74329;BME280;62749;51.982;5.916;2023-06-14T06:47:34;101491.94;;;20.59;42.05
74329;BME280;62749;51.982;5.916;2023-06-14T06:50:05;101492.44;;;20.64;41.99
74329;BME280;62749;51.982;5.916;2023-06-14T06:52:35;101498.56;;;20.66;41.74
74329;BME280;62749;51.982;5.916;2023-06-14T06:56:19;101495.41;;;20.72;41.11
74329;BME280;62749;51.982;5.916;2023-06-14T06:58:50;101505.50;;;20.81;41.15
74329;BME280;62749;51.982;5.916;2023-06-14T07:01:21;101517.06;;;20.95;41.21
74329;BME280;62749;51.982;5.916;2023-06-14T07:03:50;101511.84;;;21.05;40.76
74329;BME280;62749;51.982;5.916;2023-06-14T07:06:20;101509.09;;;21.18;40.55
74329;BME280;62749;51.982;5.916;2023-06-14T07:08:53;101512.69;;;21.29;41.01
74329;BME280;62749;51.982;5.916;2023-06-14T07:11:30;101513.16;;;21.35;40.29
74329;BME280;62749;51.982;5.916;2023-06-14T07:13:59;101515.75;;;21.36;40.26
74329;BME280;62749;51.982;5.916;2023-06-14T07:16:29;101524.34;;;21.53;40.46
74329;BME280;62749;51.982;5.916;2023-06-14T07:18:58;101526.78;;;21.56;39.96
74329;BME280;62749;51.982;5.916;2023-06-14T07:21:27;101528.19;;;21.61;39.41
74329;BME280;62749;51.982;5.916;2023-06-14T07:23:57;101527.53;;;21.58;39.77
74329;BME280;62749;51.982;5.916;2023-06-14T07:26:26;101531.25;;;21.68;39.61
74329;BME280;62749;51.982;5.916;2023-06-14T07:28:58;101531.03;;;21.94;39.46
74329;BME280;62749;51.982;5.916;2023-06-14T07:31:28;101528.34;;;21.94;38.78
74329;BME280;62749;51.982;5.916;2023-06-14T07:33:57;101540.19;;;21.80;39.02
74329;BME280;62749;51.982;5.916;2023-06-14T07:36:26;101533.97;;;21.91;39.07
74329;BME280;62749;51.982;5.916;2023-06-14T07:38:56;101537.88;;;21.87;38.91
74329;BME280;62749;51.982;5.916;2023-06-14T07:41:25;101541.19;;;22.02;38.57
74329;BME280;62749;51.982;5.916;2023-06-14T07:43:57;101540.47;;;22.11;38.37
74329;BME280;62749;51.982;5.916;2023-06-14T07:46:27;101532.38;;;22.11;37.69
74329;BME280;62749;51.982;5.916;2023-06-14T07:48:56;101529.81;;;22.21;37.10
74329;BME280;62749;51.982;5.916;2023-06-14T07:51:26;101534.47;;;22.19;37.38
74329;BME280;62749;51.982;5.916;2023-06-14T07:53:55;101539.38;;;22.25;37.11
74329;BME280;62749;51.982;5.916;2023-06-14T07:56:25;101536.69;;;22.25;37.03
74329;BME280;62749;51.982;5.916;2023-06-14T07:58:54;101542.66;;;22.40;36.26
74329;BME280;62749;51.982;5.916;2023-06-14T08:01:26;101541.56;;;22.43;35.64
74329;BME280;62749;51.982;5.916;2023-06-14T08:03:55;101550.00;;;22.15;35.68
74329;BME280;62749;51.982;5.916;2023-06-14T08:06:25;101535.94;;;22.23;36.21
74329;BME280;62749;51.982;5.916;2023-06-14T08:08:54;101543.78;;;22.49;35.43
74329;BME280;62749;51.982;5.916;2023-06-14T08:11:23;101541.81;;;22.62;35.55
74329;BME280;62749;51.982;5.916;2023-06-14T08:13:53;101537.13;;;22.76;35.64
74329;BME280;62749;51.982;5.916;2023-06-14T08:16:22;101535.97;;;22.90;35.42
74329;BME280;62749;51.982;5.916;2023-06-14T08:18:54;101533.38;;;22.99;34.56
74329;BME280;62749;51.982;5.916;2023-06-14T08:21:24;101542.06;;;23.03;34.68
74329;BME280;62749;51.982;5.916;2023-06-14T08:23:55;101536.50;;;23.16;34.27
74329;BME280;62749;51.982;5.916;2023-06-14T08:26:25;101536.19;;;23.31;34.18
74329;BME280;62749;51.982;5.916;2023-06-14T08:28:56;101536.75;;;23.24;34.07
74329;BME280;62749;51.982;5.916;2023-06-14T08:31:25;101545.69;;;23.46;33.62
74329;BME280;62749;51.982;5.916;2023-06-14T08:33:57;101545.75;;;23.56;32.48
74329;BME280;62749;51.982;5.916;2023-06-14T08:36:26;101539.78;;;23.52;33.50
74329;BME280;62749;51.982;5.916;2023-06-14T08:38:56;101535.81;;;23.56;34.02
74329;BME280;62749;51.982;5.916;2023-06-14T08:41:25;101534.06;;;23.46;33.98
74329;BME280;62749;51.982;5.916;2023-06-14T08:43:56;101529.47;;;23.36;34.18
74329;BME280;62749;51.982;5.916;2023-06-14T08:46:26;101528.44;;;23.37;34.58
74329;BME280;62749;51.982;5.916;2023-06-14T08:48:59;101533.34;;;23.65;33.63
74329;BME280;62749;51.982;5.916;2023-06-14T08:51:31;101534.66;;;23.70;31.27
74329;BME280;62749;51.982;5.916;2023-06-14T08:54:03;101546.34;;;24.02;30.96
74329;BME280;62749;51.982;5.916;2023-06-14T08:56:38;101537.72;;;23.87;31.72
74329;BME280;62749;51.982;5.916;2023-06-14T08:59:08;101543.97;;;24.09;32.41
74329;BME280;62749;51.982;5.916;2023-06-14T09:01:38;101544.06;;;23.97;33.05
74329;BME280;62749;51.982;5.916;2023-06-14T09:04:10;101539.06;;;23.71;33.26
74329;BME280;62749;51.982;5.916;2023-06-14T09:06:46;101532.38;;;23.75;33.28
74329;BME280;62749;51.982;5.916;2023-06-14T09:09:19;101540.28;;;23.88;32.94
74329;BME280;62749;51.982;5.916;2023-06-14T09:11:49;101536.44;;;24.12;33.04
74329;BME280;62749;51.982;5.916;2023-06-14T09:14:19;101535.63;;;24.21;32.24
74329;BME280;62749;51.982;5.916;2023-06-14T09:16:52;101541.09;;;24.41;31.09
74329;BME280;62749;51.982;5.916;2023-06-14T09:19:24;101542.25;;;24.39;30.32
74329;BME280;62749;51.982;5.916;2023-06-14T09:21:53;101539.13;;;24.43;31.23
74329;BME280;62749;51.982;5.916;2023-06-14T09:24:24;101544.94;;;24.48;31.52
74329;BME280;62749;51.982;5.916;2023-06-14T09:26:54;101542.84;;;24.62;32.15
74329;BME280;62749;51.982;5.916;2023-06-14T09:29:24;101543.78;;;24.92;31.41
74329;BME280;62749;51.982;5.916;2023-06-14T09:31:54;101547.91;;;24.86;31.44
74329;BME280;62749;51.982;5.916;2023-06-14T09:34:26;101553.56;;;24.73;32.49
74329;BME280;62749;51.982;5.916;2023-06-14T09:36:55;101550.88;;;24.83;31.87
74329;BME280;62749;51.982;5.916;2023-06-14T09:39:24;101537.81;;;24.98;32.08
74329;BME280;62749;51.982;5.916;2023-06-14T09:41:54;101546.81;;;25.08;31.85
74329;BME280;62749;51.982;5.916;2023-06-14T09:44:26;101547.22;;;24.94;31.18
74329;BME280;62749;51.982;5.916;2023-06-14T09:46:56;101552.34;;;24.97;31.85
74329;BME280;62749;51.982;5.916;2023-06-14T09:49:28;101534.56;;;25.04;32.16
74329;BME280;62749;51.982;5.916;2023-06-14T09:51:59;101543.41;;;25.16;32.01
74329;BME280;62749;51.982;5.916;2023-06-14T09:54:30;101543.25;;;25.18;30.88
74329;BME280;62749;51.982;5.916;2023-06-14T09:57:03;101532.28;;;25.00;30.34
74329;BME280;62749;51.982;5.916;2023-06-14T09:59:35;101549.63;;;25.17;28.94
74329;BME280;62749;51.982;5.916;2023-06-14T10:02:11;101548.63;;;25.08;29.17
74329;BME280;62749;51.982;5.916;2023-06-14T10:04:48;101539.53;;;24.99;29.98
74329;BME280;62749;51.982;5.916;2023-06-14T10:07:20;101535.97;;;25.18;29.84
74329;BME280;62749;51.982;5.916;2023-06-14T10:09:52;101544.34;;;25.25;29.43
74329;BME280;62749;51.982;5.916;2023-06-14T10:12:22;101539.69;;;25.17;30.21
74329;BME280;62749;51.982;5.916;2023-06-14T10:14:52;101533.84;;;25.22;30.14
74329;BME280;62749;51.982;5.916;2023-06-14T10:17:28;101532.03;;;25.42;30.52
74329;BME280;62749;51.982;5.916;2023-06-14T10:20:21;101539.81;;;25.65;29.68
74329;BME280;62749;51.982;5.916;2023-06-14T10:23:00;101542.69;;;25.53;30.13
74329;BME280;62749;51.982;5.916;2023-06-14T10:25:32;101541.53;;;25.56;29.14
74329;BME280;62749;51.982;5.916;2023-06-14T10:28:05;101533.16;;;25.97;28.74
74329;BME280;62749;51.982;5.916;2023-06-14T10:31:04;101526.53;;;26.19;28.33
74329;BME280;62749;51.982;5.916;2023-06-14T10:33:35;101526.63;;;26.27;28.75
74329;BME280;62749;51.982;5.916;2023-06-14T10:36:25;101530.00;;;26.01;28.73
74329;BME280;62749;51.982;5.916;2023-06-14T10:38:58;101530.25;;;26.18;28.44
74329;BME280;62749;51.982;5.916;2023-06-14T10:41:29;101531.50;;;26.24;28.49
74329;BME280;62749;51.982;5.916;2023-06-14T10:46:56;101537.63;;;26.26;28.64
74329;BME280;62749;51.982;5.916;2023-06-14T10:49:41;101532.47;;;26.32;27.43
74329;BME280;62749;51.982;5.916;2023-06-14T10:52:15;101542.50;;;26.50;27.40
74329;BME280;62749;51.982;5.916;2023-06-14T10:55:06;101535.59;;;27.20;26.82
74329;BME280;62749;51.982;5.916;2023-06-14T10:57:40;101540.69;;;28.63;24.34
74329;BME280;62749;51.982;5.916;2023-06-14T11:00:11;101542.56;;;30.11;22.83
74329;BME280;62749;51.982;5.916;2023-06-14T11:05:55;101551.22;;;30.15;22.76
74329;BME280;62749;51.982;5.916;2023-06-14T11:08:56;101550.69;;;29.55;22.13
74329;BME280;62749;51.982;5.916;2023-06-14T11:11:35;101557.22;;;30.19;22.86
74329;BME280;62749;51.982;5.916;2023-06-14T11:14:06;101545.75;;;31.56;21.58
74329;BME280;62749;51.982;5.916;2023-06-14T11:16:36;101544.84;;;31.26;22.04
74329;BME280;62749;51.982;5.916;2023-06-14T11:19:06;101541.38;;;31.70;21.34
74329;BME280;62749;51.982;5.916;2023-06-14T11:21:39;101541.44;;;31.62;20.37
74329;BME280;62749;51.982;5.916;2023-06-14T11:24:12;101559.84;;;30.75;21.32
74329;BME280;62749;51.982;5.916;2023-06-14T11:26:50;101553.44;;;30.91;21.25
74329;BME280;62749;51.982;5.916;2023-06-14T11:29:20;101542.72;;;31.13;21.02
74329;BME280;62749;51.982;5.916;2023-06-14T11:31:50;101551.97;;;31.65;20.95
74329;BME280;62749;51.982;5.916;2023-06-14T11:34:20;101546.59;;;31.18;20.35
74329;BME280;62749;51.982;5.916;2023-06-14T11:36:49;101544.97;;;31.47;21.07
74329;BME280;62749;51.982;5.916;2023-06-14T11:39:24;101547.78;;;31.39;21.39
74329;BME280;62749;51.982;5.916;2023-06-14T11:41:54;101542.97;;;32.24;20.45
74329;BME280;62749;51.982;5.916;2023-06-14T11:44:27;101550.72;;;31.91;21.26
74329;BME280;62749;51.982;5.916;2023-06-14T11:46:56;101544.63;;;32.55;20.24
74329;BME280;62749;51.982;5.916;2023-06-14T11:49:26;101546.66;;;32.47;20.45
74329;BME280;62749;51.982;5.916;2023-06-14T11:51:55;101556.81;;;32.23;20.60
74329;BME280;62749;51.982;5.916;2023-06-14T11:54:28;101554.84;;;32.17;20.45
74329;BME280;62749;51.982;5.916;2023-06-14T11:56:58;101558.13;;;32.79;20.43
74329;BME280;62749;51.982;5.916;2023-06-14T11:59:27;101553.25;;;32.37;20.63
74329;BME280;62749;51.982;5.916;2023-06-14T12:01:57;101547.44;;;31.42;20.97
74329;BME280;62749;51.982;5.916;2023-06-14T12:04:27;101550.63;;;31.46;21.37
74329;BME280;62749;51.982;5.916;2023-06-14T12:06:56;101553.72;;;31.96;21.43
74329;BME280;62749;51.982;5.916;2023-06-14T12:09:28;101552.88;;;31.80;21.27
74329;BME280;62749;51.982;5.916;2023-06-14T12:12:02;101557.13;;;30.75;22.32
74329;BME280;62749;51.982;5.916;2023-06-14T12:14:33;101562.22;;;30.38;22.64
74329;BME280;62749;51.982;5.916;2023-06-14T12:17:06;101555.91;;;29.73;23.41
74329;BME280;62749;51.982;5.916;2023-06-14T12:19:41;101555.03;;;30.06;23.55
74329;BME280;62749;51.982;5.916;2023-06-14T12:22:13;101543.13;;;31.01;22.34
74329;BME280;62749;51.982;5.916;2023-06-14T12:24:45;101545.06;;;30.29;22.67
74329;BME280;62749;51.982;5.916;2023-06-14T12:27:16;101550.47;;;29.81;23.64
74329;BME280;62749;51.982;5.916;2023-06-14T12:29:46;101539.78;;;29.05;24.67
74329;BME280;62749;51.982;5.916;2023-06-14T12:32:27;101552.41;;;29.48;24.90
74329;BME280;62749;51.982;5.916;2023-06-14T12:34:57;101542.47;;;29.88;24.25
74329;BME280;62749;51.982;5.916;2023-06-14T12:37:26;101546.72;;;29.74;24.04
74329;BME280;62749;51.982;5.916;2023-06-14T12:39:58;101540.22;;;30.00;24.27
74329;BME280;62749;51.982;5.916;2023-06-14T12:42:27;101546.00;;;30.05;23.87
74329;BME280;62749;51.982;5.916;2023-06-14T12:44:57;101534.28;;;29.96;23.98
74329;BME280;62749;51.982;5.916;2023-06-14T12:47:26;101541.94;;;29.84;24.10
74329;BME280;62749;51.982;5.916;2023-06-14T12:49:56;101547.25;;;29.69;24.42
74329;BME280;62749;51.982;5.916;2023-06-14T12:52:26;101545.63;;;30.56;23.52
74329;BME280;62749;51.982;5.916;2023-06-14T12:54:59;101548.16;;;30.18;22.60
74329;BME280;62749;51.982;5.916;2023-06-14T12:57:28;101557.09;;;29.79;24.01
74329;BME280;62749;51.982;5.916;2023-06-14T13:00:00;101555.09;;;29.56;24.77
74329;BME280;62749;51.982;5.916;2023-06-14T13:05:34;101550.34;;;30.23;24.32
74329;BME280;62749;51.982;5.916;2023-06-14T13:08:07;101557.78;;;29.81;23.81
74329;BME280;62749;51.982;5.916;2023-06-14T13:10:40;101545.06;;;30.29;23.69
74329;BME280;62749;51.982;5.916;2023-06-14T13:13:09;101538.25;;;31.20;22.72
74329;BME280;62749;51.982;5.916;2023-06-14T13:15:39;101549.56;;;31.32;22.40
74329;BME280;62749;51.982;5.916;2023-06-14T13:18:10;101548.34;;;31.11;22.27
74329;BME280;62749;51.982;5.916;2023-06-14T13:20:39;101557.41;;;30.80;22.49